sensor_id;sensor_type;location;lat;lon;timestamp;pressure;altitude;pressure_sealevel;temperature;humidity
10716;BME280;5409;42.620;23.316;2022-08-11T00:02:14;92456.06;;;18.07;100.00
10716;BME280;5409;42.620;23.316;2022-08-11T00:04:41;92447.25;;;18.03;100.00
10716;BME280;5409;42.620;23.316;2022-08-11T00:07:09;92456.63;;;17.91;100.00
10716;BME280;5409;42.620;23.316;2022-08-11T00:09:38;92446.00;;;17.84;100.00
10716;BME280;5409;42.620;23.316;2022-08-11T00:12:12;92454.00;;;17.82;100.00
10716;BME280;5409;42.620;23.316;2022-08-11T00:14:40;92448.41;;;17.76;100.00
10716;BME280;5409;42.620;23.316;2022-08-11T00:17:11;92444.97;;;17.81;100.00
10716;BME280;5409;42.620;23.316;2022-08-11T00:19:42;92449.16;;;17.77;100.00
10716;BME280;5409;42.620;23.316;2022-08-11T00:22:19;92443.50;;;17.66;100.00
10716;BME280;5409;42.620;23.316;2022-08-11T00:24:48;92445.31;;;17.54;100.00
10716;BME280;5409;42.620;23.316;2022-08-11T00:27:15;92448.69;;;17.44;100.00
10716;BME280;5409;42.620;23.316;2022-08-11T00:29:51;92447.56;;;17.36;100.00
10716;BME280;5409;42.620;23.316;2022-08-11T00:32:19;92446.53;;;17.33;100.00
10716;BME280;5409;42.620;23.316;2022-08-11T00:34:46;92446.13;;;17.26;100.00
10716;BME280;5409;42.620;23.316;2022-08-11T00:37:17;92444.13;;;17.26;100.00
10716;BME280;5409;42.620;23.316;2022-08-11T00:39:49;92436.63;;;17.27;100.00
10716;BME280;5409;42.620;23.316;2022-08-11T00:42:26;92441.88;;;17.25;100.00
10716;BME280;5409;42.620;23.316;2022-08-11T00:45:03;92441.88;;;17.25;100.00
10716;BME280;5409;42.620;23.316;2022-08-11T00:47:45;92439.00;;;17.34;100.00
10716;BME280;5409;42.620;23.316;2022-08-11T00:50:18;92443.66;;;17.28;100.00
10716;BME280;5409;42.620;23.316;2022-08-11T00:53:11;92437.03;;;17.20;100.00
10716;BME280;5409;42.620;23.316;2022-08-11T00:59:15;92427.69;;;17.17;100.00
10716;BME280;5409;42.620;23.316;2022-08-11T01:01:57;92426.66;;;17.15;100.00
10716;BME280;5409;42.620;23.316;2022-08-11T01:11:02;92442.63;;;17.11;100.00
10716;BME280;5409;42.620;23.316;2022-08-11T01:13:45;92430.19;;;17.01;100.00
10716;BME280;5409;42.620;23.316;2022-08-11T01:25:44;92437.13;;;16.97;100.00
10716;BME280;5409;42.620;23.316;2022-08-11T01:28:40;92432.78;;;16.90;100.00
10716;BME280;5409;42.620;23.316;2022-08-11T01:31:38;92430.31;;;16.92;100.00
10716;BME280;5409;42.620;23.316;2022-08-11T01:37:48;92425.25;;;16.91;100.00
10716;BME280;5409;42.620;23.316;2022-08-11T01:40:46;92422.88;;;16.84;100.00
10716;BME280;5409;42.620;23.316;2022-08-11T01:43:45;92430.88;;;16.82;100.00
10716;BME280;5409;42.620;23.316;2022-08-11T01:46:43;92425.56;;;16.78;100.00
10716;BME280;5409;42.620;23.316;2022-08-11T01:49:20;92424.91;;;16.83;100.00
10716;BME280;5409;42.620;23.316;2022-08-11T01:52:03;92430.69;;;16.85;100.00
10716;BME280;5409;42.620;23.316;2022-08-11T01:54:41;92424.69;;;16.87;100.00
10716;BME280;5409;42.620;23.316;2022-08-11T01:57:19;92426.22;;;16.73;100.00
10716;BME280;5409;42.620;23.316;2022-08-11T01:59:59;92421.88;;;16.67;100.00
10716;BME280;5409;42.620;23.316;2022-08-11T02:02:36;92418.16;;;16.70;100.00
10716;BME280;5409;42.620;23.316;2022-08-11T02:05:28;92424.13;;;16.68;100.00
10716;BME280;5409;42.620;23.316;2022-08-11T02:08:04;92414.19;;;16.71;100.00
10716;BME280;5409;42.620;23.316;2022-08-11T02:10:42;92412.16;;;16.71;100.00
10716;BME280;5409;42.620;23.316;2022-08-11T02:13:35;92408.56;;;16.65;100.00
10716;BME280;5409;42.620;23.316;2022-08-11T02:16:11;92412.66;;;16.55;100.00
10716;BME280;5409;42.620;23.316;2022-08-11T02:18:42;92414.06;;;16.51;100.00
10716;BME280;5409;42.620;23.316;2022-08-11T02:21:48;92414.53;;;16.49;100.00
10716;BME280;5409;42.620;23.316;2022-08-11T02:24:38;92409.56;;;16.39;100.00
10716;BME280;5409;42.620;23.316;2022-08-11T02:27:21;92411.19;;;16.31;100.00
10716;BME280;5409;42.620;23.316;2022-08-11T02:29:56;92408.75;;;16.33;100.00
10716;BME280;5409;42.620;23.316;2022-08-11T02:32:34;92412.41;;;16.30;100.00
10716;BME280;5409;42.620;23.316;2022-08-11T02:35:24;92412.13;;;16.28;100.00
10716;BME280;5409;42.620;23.316;2022-08-11T02:38:04;92411.53;;;16.24;100.00
10716;BME280;5409;42.620;23.316;2022-08-11T02:40:42;92409.72;;;16.21;100.00
10716;BME280;5409;42.620;23.316;2022-08-11T02:43:21;92409.63;;;16.15;100.00
10716;BME280;5409;42.620;23.316;2022-08-11T02:45:55;92417.41;;;16.17;100.00
10716;BME280;5409;42.620;23.316;2022-08-11T02:48:38;92408.50;;;16.22;100.00
10716;BME280;5409;42.620;23.316;2022-08-11T02:51:39;92411.44;;;16.18;100.00
10716;BME280;5409;42.620;23.316;2022-08-11T02:54:14;92407.72;;;16.21;100.00
10716;BME280;5409;42.620;23.316;2022-08-11T02:56:49;92406.19;;;16.20;100.00
10716;BME280;5409;42.620;23.316;2022-08-11T02:59:26;92407.16;;;16.17;100.00
10716;BME280;5409;42.620;23.316;2022-08-11T03:02:17;92411.91;;;16.17;100.00
10716;BME280;5409;42.620;23.316;2022-08-11T03:04:57;92411.91;;;16.17;100.00
10716;BME280;5409;42.620;23.316;2022-08-11T03:07:30;92413.41;;;16.18;100.00
10716;BME280;5409;42.620;23.316;2022-08-11T03:10:05;92413.22;;;16.21;100.00
10716;BME280;5409;42.620;23.316;2022-08-11T03:12:43;92413.50;;;16.23;100.00
10716;BME280;5409;42.620;23.316;2022-08-11T03:15:31;92417.69;;;16.19;100.00
10716;BME280;5409;42.620;23.316;2022-08-11T03:18:28;92421.38;;;16.16;100.00
10716;BME280;5409;42.620;23.316;2022-08-11T03:21:05;92419.22;;;16.20;100.00
10716;BME280;5409;42.620;23.316;2022-08-11T03:23:38;92419.69;;;16.18;100.00
10716;BME280;5409;42.620;23.316;2022-08-11T03:26:14;92418.56;;;16.25;100.00
10716;BME280;5409;42.620;23.316;2022-08-11T03:28:53;92419.50;;;16.22;100.00
10716;BME280;5409;42.620;23.316;2022-08-11T03:31:31;92415.03;;;16.24;100.00
10716;BME280;5409;42.620;23.316;2022-08-11T03:34:02;92415.31;;;16.26;100.00
10716;BME280;5409;42.620;23.316;2022-08-11T03:36:51;92415.53;;;16.23;100.00
10716;BME280;5409;42.620;23.316;2022-08-11T03:39:30;92414.28;;;16.24;100.00
10716;BME280;5409;42.620;23.316;2022-08-11T03:42:08;92416.56;;;16.25;100.00
10716;BME280;5409;42.620;23.316;2022-08-11T03:44:54;92416.38;;;16.29;100.00
10716;BME280;5409;42.620;23.316;2022-08-11T03:47:33;92420.38;;;16.28;100.00
10716;BME280;5409;42.620;23.316;2022-08-11T03:50:11;92427.22;;;16.32;100.00
10716;BME280;5409;42.620;23.316;2022-08-11T03:53:01;92428.75;;;16.33;100.00
10716;BME280;5409;42.620;23.316;2022-08-11T03:55:47;92425.53;;;16.35;100.00
10716;BME280;5409;42.620;23.316;2022-08-11T03:58:51;92419.84;;;16.38;100.00
10716;BME280;5409;42.620;23.316;2022-08-11T04:01:38;92422.69;;;16.44;100.00
10716;BME280;5409;42.620;23.316;2022-08-11T04:04:35;92423.25;;;16.48;100.00
10716;BME280;5409;42.620;23.316;2022-08-11T04:07:26;92423.66;;;16.55;100.00
10716;BME280;5409;42.620;23.316;2022-08-11T04:10:22;92432.59;;;16.65;100.00
10716;BME280;5409;42.620;23.316;2022-08-11T04:13:34;92431.16;;;16.69;100.00
10716;BME280;5409;42.620;23.316;2022-08-11T04:16:23;92434.47;;;16.73;100.00
10716;BME280;5409;42.620;23.316;2022-08-11T04:19:14;92430.78;;;16.91;100.00
10716;BME280;5409;42.620;23.316;2022-08-11T04:22:25;92425.16;;;17.00;100.00
10716;BME280;5409;42.620;23.316;2022-08-11T04:25:36;92429.06;;;17.08;100.00
10716;BME280;5409;42.620;23.316;2022-08-11T04:28:37;92430.88;;;17.11;100.00
10716;BME280;5409;42.620;23.316;2022-08-11T04:31:23;92433.03;;;17.21;100.00
10716;BME280;5409;42.620;23.316;2022-08-11T04:34:06;92431.69;;;17.31;100.00
10716;BME280;5409;42.620;23.316;2022-08-11T04:37:10;92432.44;;;17.46;100.00
10716;BME280;5409;42.620;23.316;2022-08-11T04:46:39;92436.22;;;17.83;100.00
10716;BME280;5409;42.620;23.316;2022-08-11T04:52:45;92433.81;;;18.10;100.00
10716;BME280;5409;42.620;23.316;2022-08-11T04:56:00;92429.00;;;18.25;100.00
10716;BME280;5409;42.620;23.316;2022-08-11T04:58:56;92432.66;;;18.37;100.00
10716;BME280;5409;42.620;23.316;2022-08-11T05:01:59;92437.53;;;18.47;100.00
10716;BME280;5409;42.620;23.316;2022-08-11T05:04:44;92440.91;;;18.56;100.00
10716;BME280;5409;42.620;23.316;2022-08-11T05:11:02;92435.00;;;18.69;100.00
10716;BME280;5409;42.620;23.316;2022-08-11T05:13:36;92438.56;;;18.75;100.00
10716;BME280;5409;42.620;23.316;2022-08-11T05:16:31;92431.94;;;18.87;100.00
10716;BME280;5409;42.620;23.316;2022-08-11T05:19:19;92442.31;;;18.97;100.00
10716;BME280;5409;42.620;23.316;2022-08-11T05:22:07;92434.84;;;19.03;100.00
10716;BME280;5409;42.620;23.316;2022-08-11T05:24:59;92439.16;;;19.10;100.00
10716;BME280;5409;42.620;23.316;2022-08-11T05:27:49;92432.50;;;19.22;100.00
10716;BME280;5409;42.620;23.316;2022-08-11T05:30:38;92434.84;;;19.29;100.00
10716;BME280;5409;42.620;23.316;2022-08-11T05:33:31;92446.19;;;19.36;100.00
10716;BME280;5409;42.620;23.316;2022-08-11T05:36:24;92442.28;;;19.48;100.00
10716;BME280;5409;42.620;23.316;2022-08-11T05:38:57;92433.78;;;19.57;100.00
10716;BME280;5409;42.620;23.316;2022-08-11T05:41:42;92443.38;;;19.61;100.00
10716;BME280;5409;42.620;23.316;2022-08-11T05:44:27;92434.09;;;19.64;100.00
10716;BME280;5409;42.620;23.316;2022-08-11T05:47:21;92443.69;;;19.74;100.00
10716;BME280;5409;42.620;23.316;2022-08-11T05:50:08;92452.31;;;19.82;100.00
10716;BME280;5409;42.620;23.316;2022-08-11T05:52:55;92445.91;;;20.01;100.00
10716;BME280;5409;42.620;23.316;2022-08-11T05:55:40;92453.81;;;20.19;100.00
10716;BME280;5409;42.620;23.316;2022-08-11T05:58:26;92441.75;;;20.28;100.00
10716;BME280;5409;42.620;23.316;2022-08-11T06:00:58;92443.06;;;20.43;100.00
10716;BME280;5409;42.620;23.316;2022-08-11T06:03:27;92445.09;;;20.48;100.00
10716;BME280;5409;42.620;23.316;2022-08-11T06:05:55;92447.16;;;20.59;100.00
10716;BME280;5409;42.620;23.316;2022-08-11T06:08:29;92452.47;;;20.67;100.00
10716;BME280;5409;42.620;23.316;2022-08-11T06:11:00;92455.28;;;20.73;100.00
10716;BME280;5409;42.620;23.316;2022-08-11T06:13:27;92452.81;;;20.80;100.00
10716;BME280;5409;42.620;23.316;2022-08-11T06:15:55;92453.31;;;20.95;100.00
10716;BME280;5409;42.620;23.316;2022-08-11T06:18:22;92456.13;;;21.06;100.00
10716;BME280;5409;42.620;23.316;2022-08-11T06:20:51;92453.38;;;21.17;100.00
10716;BME280;5409;42.620;23.316;2022-08-11T06:23:20;92455.13;;;21.04;100.00
10716;BME280;5409;42.620;23.316;2022-08-11T06:25:50;92448.31;;;20.99;100.00
10716;BME280;5409;42.620;23.316;2022-08-11T06:28:18;92445.28;;;21.08;100.00
10716;BME280;5409;42.620;23.316;2022-08-11T06:30:55;92448.06;;;21.08;100.00
10716;BME280;5409;42.620;23.316;2022-08-11T06:33:29;92449.84;;;21.28;100.00
10716;BME280;5409;42.620;23.316;2022-08-11T06:36:02;92453.63;;;21.30;100.00
10716;BME280;5409;42.620;23.316;2022-08-11T06:38:41;92445.81;;;21.29;100.00
10716;BME280;5409;42.620;23.316;2022-08-11T06:41:18;92452.63;;;21.33;100.00
10716;BME280;5409;42.620;23.316;2022-08-11T06:44:16;92455.41;;;21.55;100.00
10716;BME280;5409;42.620;23.316;2022-08-11T06:46:47;92454.91;;;21.51;100.00
10716;BME280;5409;42.620;23.316;2022-08-11T06:49:17;92460.97;;;21.44;100.00
10716;BME280;5409;42.620;23.316;2022-08-11T06:52:05;92462.22;;;21.27;100.00
10716;BME280;5409;42.620;23.316;2022-08-11T06:54:34;92448.84;;;21.36;100.00
10716;BME280;5409;42.620;23.316;2022-08-11T06:57:05;92460.47;;;21.29;100.00
10716;BME280;5409;42.620;23.316;2022-08-11T06:59:50;92462.00;;;21.47;100.00
10716;BME280;5409;42.620;23.316;2022-08-11T07:02:37;92462.00;;;21.69;100.00
10716;BME280;5409;42.620;23.316;2022-08-11T07:05:15;92468.78;;;21.84;100.00
10716;BME280;5409;42.620;23.316;2022-08-11T07:08:12;92477.38;;;21.86;100.00
10716;BME280;5409;42.620;23.316;2022-08-11T07:14:20;92482.94;;;21.97;100.00
10716;BME280;5409;42.620;23.316;2022-08-11T07:23:52;92481.22;;;22.73;93.43
10716;BME280;5409;42.620;23.316;2022-08-11T07:26:40;92486.50;;;22.76;87.60
10716;BME280;5409;42.620;23.316;2022-08-11T07:29:29;92483.66;;;22.93;86.38
10716;BME280;5409;42.620;23.316;2022-08-11T07:32:01;92481.78;;;23.17;86.20
10716;BME280;5409;42.620;23.316;2022-08-11T07:34:35;92486.81;;;23.18;83.11
10716;BME280;5409;42.620;23.316;2022-08-11T07:37:08;92493.47;;;23.10;82.54
10716;BME280;5409;42.620;23.316;2022-08-11T07:39:37;92484.88;;;23.48;83.29
10716;BME280;5409;42.620;23.316;2022-08-11T07:42:07;92487.91;;;23.85;82.11
10716;BME280;5409;42.620;23.316;2022-08-11T07:44:39;92486.19;;;23.82;84.64
10716;BME280;5409;42.620;23.316;2022-08-11T07:47:20;92486.19;;;23.82;80.10
10716;BME280;5409;42.620;23.316;2022-08-11T07:50:08;92482.63;;;23.82;80.10
10716;BME280;5409;42.620;23.316;2022-08-11T07:52:53;92482.91;;;23.73;82.70
10716;BME280;5409;42.620;23.316;2022-08-11T07:55:21;92474.91;;;23.29;87.49
10716;BME280;5409;42.620;23.316;2022-08-11T07:57:49;92481.72;;;23.28;90.09
10716;BME280;5409;42.620;23.316;2022-08-11T08:00:37;92479.41;;;23.32;87.79
10716;BME280;5409;42.620;23.316;2022-08-11T08:03:22;92473.09;;;22.80;93.86
10716;BME280;5409;42.620;23.316;2022-08-11T08:06:07;92471.59;;;22.79;88.07
10716;BME280;5409;42.620;23.316;2022-08-11T08:08:52;92478.06;;;23.04;89.81
10716;BME280;5409;42.620;23.316;2022-08-11T08:11:38;92472.47;;;23.49;85.55
10716;BME280;5409;42.620;23.316;2022-08-11T08:14:22;92483.13;;;24.10;78.00
10716;BME280;5409;42.620;23.316;2022-08-11T08:17:09;92476.25;;;24.64;76.60
10716;BME280;5409;42.620;23.316;2022-08-11T08:19:54;92482.09;;;24.84;74.39
10716;BME280;5409;42.620;23.316;2022-08-11T08:22:21;92477.22;;;24.90;70.09
10716;BME280;5409;42.620;23.316;2022-08-11T08:24:48;92467.06;;;25.11;69.89
10716;BME280;5409;42.620;23.316;2022-08-11T08:27:17;92468.38;;;25.29;69.58
10716;BME280;5409;42.620;23.316;2022-08-11T08:29:45;92460.66;;;25.16;72.30
10716;BME280;5409;42.620;23.316;2022-08-11T08:32:33;92453.47;;;25.02;73.43
10716;BME280;5409;42.620;23.316;2022-08-11T08:35:04;92459.47;;;24.45;76.08
10716;BME280;5409;42.620;23.316;2022-08-11T08:37:32;92457.41;;;23.98;77.27
10716;BME280;5409;42.620;23.316;2022-08-11T08:39:59;92460.56;;;24.13;77.28
10716;BME280;5409;42.620;23.316;2022-08-11T08:42:27;92453.41;;;23.94;81.46
10716;BME280;5409;42.620;23.316;2022-08-11T08:44:58;92458.19;;;23.99;73.99
10716;BME280;5409;42.620;23.316;2022-08-11T08:47:28;92451.63;;;24.68;74.06
10716;BME280;5409;42.620;23.316;2022-08-11T08:49:59;92453.09;;;24.93;69.47
10716;BME280;5409;42.620;23.316;2022-08-11T08:52:33;92458.63;;;25.35;70.88
10716;BME280;5409;42.620;23.316;2022-08-11T08:55:06;92449.50;;;25.16;71.50
10716;BME280;5409;42.620;23.316;2022-08-11T08:57:35;92458.47;;;25.46;70.54
10716;BME280;5409;42.620;23.316;2022-08-11T09:00:04;92442.88;;;25.87;58.90
10716;BME280;5409;42.620;23.316;2022-08-11T09:02:32;92428.16;;;26.57;55.50
10716;BME280;5409;42.620;23.316;2022-08-11T09:05:01;92420.94;;;26.74;60.85
10716;BME280;5409;42.620;23.316;2022-08-11T09:07:29;92431.19;;;26.02;62.21
10716;BME280;5409;42.620;23.316;2022-08-11T09:09:58;92423.44;;;25.95;68.64
10716;BME280;5409;42.620;23.316;2022-08-11T09:12:26;92427.50;;;25.81;68.59
10716;BME280;5409;42.620;23.316;2022-08-11T09:14:54;92425.06;;;25.72;68.10
10716;BME280;5409;42.620;23.316;2022-08-11T09:17:30;92422.94;;;25.28;68.02
10716;BME280;5409;42.620;23.316;2022-08-11T09:20:03;92421.44;;;25.09;66.94
10716;BME280;5409;42.620;23.316;2022-08-11T09:22:33;92423.69;;;25.47;65.28
10716;BME280;5409;42.620;23.316;2022-08-11T09:25:19;92422.59;;;26.00;60.29
10716;BME280;5409;42.620;23.316;2022-08-11T09:28:05;92423.75;;;26.49;57.84
10716;BME280;5409;42.620;23.316;2022-08-11T09:30:36;92432.03;;;27.39;55.22
10716;BME280;5409;42.620;23.316;2022-08-11T09:33:06;92420.22;;;28.07;50.57
10716;BME280;5409;42.620;23.316;2022-08-11T09:35:35;92415.25;;;28.13;53.26
10716;BME280;5409;42.620;23.316;2022-08-11T09:38:04;92416.84;;;26.63;62.60
10716;BME280;5409;42.620;23.316;2022-08-11T09:40:50;92424.09;;;26.01;63.63
10716;BME280;5409;42.620;23.316;2022-08-11T09:43:18;92405.47;;;25.28;63.98
10716;BME280;5409;42.620;23.316;2022-08-11T09:46:04;92411.75;;;26.09;61.84
10716;BME280;5409;42.620;23.316;2022-08-11T09:48:41;92403.81;;;26.91;61.00
10716;BME280;5409;42.620;23.316;2022-08-11T09:51:12;92403.75;;;27.63;54.97
10716;BME280;5409;42.620;23.316;2022-08-11T09:53:41;92403.47;;;27.94;57.57
10716;BME280;5409;42.620;23.316;2022-08-11T09:56:11;92411.56;;;28.39;56.67
10716;BME280;5409;42.620;23.316;2022-08-11T09:58:57;92402.19;;;27.95;58.80
10716;BME280;5409;42.620;23.316;2022-08-11T10:01:28;92395.47;;;28.19;58.18
10716;BME280;5409;42.620;23.316;2022-08-11T10:03:59;92401.09;;;27.98;53.00
10716;BME280;5409;42.620;23.316;2022-08-11T10:06:29;92397.03;;;28.07;51.33
10716;BME280;5409;42.620;23.316;2022-08-11T10:09:18;92389.31;;;28.76;50.42
10716;BME280;5409;42.620;23.316;2022-08-11T10:11:46;92395.22;;;29.28;48.64
10716;BME280;5409;42.620;23.316;2022-08-11T10:14:15;92387.81;;;29.46;47.25
10716;BME280;5409;42.620;23.316;2022-08-11T10:17:03;92385.16;;;29.40;45.73
10716;BME280;5409;42.620;23.316;2022-08-11T10:19:32;92383.13;;;29.48;45.43
10716;BME280;5409;42.620;23.316;2022-08-11T10:22:03;92391.50;;;28.98;48.11
10716;BME280;5409;42.620;23.316;2022-08-11T10:24:49;92391.63;;;29.20;46.85
10716;BME280;5409;42.620;23.316;2022-08-11T10:27:34;92391.50;;;28.63;51.83
10716;BME280;5409;42.620;23.316;2022-08-11T10:30:01;92396.47;;;29.13;49.58
10716;BME280;5409;42.620;23.316;2022-08-11T10:32:46;92391.91;;;29.02;51.31
10716;BME280;5409;42.620;23.316;2022-08-11T10:35:33;92399.50;;;28.59;55.38
10716;BME280;5409;42.620;23.316;2022-08-11T10:38:02;92384.78;;;29.44;51.19
10716;BME280;5409;42.620;23.316;2022-08-11T10:40:30;92377.75;;;29.88;48.89
10716;BME280;5409;42.620;23.316;2022-08-11T10:42:59;92380.41;;;30.23;46.54
10716;BME280;5409;42.620;23.316;2022-08-11T10:45:34;92385.63;;;29.67;46.80
10716;BME280;5409;42.620;23.316;2022-08-11T10:48:19;92370.22;;;29.45;50.37
10716;BME280;5409;42.620;23.316;2022-08-11T10:50:48;92375.69;;;29.66;49.79
10716;BME280;5409;42.620;23.316;2022-08-11T10:53:34;92370.91;;;28.32;53.37
10716;BME280;5409;42.620;23.316;2022-08-11T10:56:19;92372.13;;;28.44;54.30
10716;BME280;5409;42.620;23.316;2022-08-11T10:59:05;92371.06;;;29.33;51.46
10716;BME280;5409;42.620;23.316;2022-08-11T11:01:37;92367.50;;;29.32;50.25
10716;BME280;5409;42.620;23.316;2022-08-11T11:04:05;92365.69;;;28.64;52.24
10716;BME280;5409;42.620;23.316;2022-08-11T11:06:38;92370.13;;;28.52;53.42
10716;BME280;5409;42.620;23.316;2022-08-11T11:09:14;92354.59;;;28.51;51.31
10716;BME280;5409;42.620;23.316;2022-08-11T11:11:44;92355.06;;;28.70;53.15
10716;BME280;5409;42.620;23.316;2022-08-11T11:14:31;92351.69;;;29.07;47.20
10716;BME280;5409;42.620;23.316;2022-08-11T11:17:24;92355.25;;;29.65;49.06
10716;BME280;5409;42.620;23.316;2022-08-11T11:20:12;92364.59;;;29.03;47.31
10716;BME280;5409;42.620;23.316;2022-08-11T11:22:42;92354.38;;;29.20;49.98
10716;BME280;5409;42.620;23.316;2022-08-11T11:25:20;92361.50;;;28.86;49.20
10716;BME280;5409;42.620;23.316;2022-08-11T11:28:12;92361.59;;;29.43;47.14
10716;BME280;5409;42.620;23.316;2022-08-11T11:30:47;92370.13;;;29.38;50.44
10716;BME280;5409;42.620;23.316;2022-08-11T11:33:26;92365.59;;;29.85;43.73
10716;BME280;5409;42.620;23.316;2022-08-11T11:36:08;92374.81;;;30.53;44.89
10716;BME280;5409;42.620;23.316;2022-08-11T11:38:39;92371.78;;;30.51;45.55
10716;BME280;5409;42.620;23.316;2022-08-11T11:41:08;92361.97;;;29.47;46.04
10716;BME280;5409;42.620;23.316;2022-08-11T11:43:51;92363.47;;;29.56;46.61
10716;BME280;5409;42.620;23.316;2022-08-11T11:46:19;92361.09;;;30.05;46.44
10716;BME280;5409;42.620;23.316;2022-08-11T11:48:46;92370.09;;;30.48;42.37
10716;BME280;5409;42.620;23.316;2022-08-11T11:51:13;92357.53;;;30.56;43.02
10716;BME280;5409;42.620;23.316;2022-08-11T11:53:42;92356.97;;;30.65;41.23
10716;BME280;5409;42.620;23.316;2022-08-11T11:56:11;92357.75;;;30.06;43.57
10716;BME280;5409;42.620;23.316;2022-08-11T11:58:39;92352.16;;;29.41;46.10
10716;BME280;5409;42.620;23.316;2022-08-11T12:01:24;92357.91;;;28.22;49.34
10716;BME280;5409;42.620;23.316;2022-08-11T12:03:53;92352.44;;;27.68;52.49
10716;BME280;5409;42.620;23.316;2022-08-11T12:06:22;92354.91;;;27.72;55.35
10716;BME280;5409;42.620;23.316;2022-08-11T12:08:52;92344.13;;;28.59;49.72
10716;BME280;5409;42.620;23.316;2022-08-11T12:11:23;92343.38;;;28.87;47.65
10716;BME280;5409;42.620;23.316;2022-08-11T12:14:09;92332.97;;;29.82;43.16
10716;BME280;5409;42.620;23.316;2022-08-11T12:16:39;92343.28;;;30.39;40.35
10716;BME280;5409;42.620;23.316;2022-08-11T12:19:08;92332.38;;;29.61;40.69
10716;BME280;5409;42.620;23.316;2022-08-11T12:21:38;92333.53;;;29.81;42.90
10716;BME280;5409;42.620;23.316;2022-08-11T12:27:49;92337.31;;;30.13;41.20
10716;BME280;5409;42.620;23.316;2022-08-11T12:30:18;92335.19;;;30.51;40.45
10716;BME280;5409;42.620;23.316;2022-08-11T12:32:45;92337.28;;;29.83;41.02
10716;BME280;5409;42.620;23.316;2022-08-11T12:35:14;92334.28;;;29.89;40.49
10716;BME280;5409;42.620;23.316;2022-08-11T12:37:44;92333.13;;;30.66;40.93
10716;BME280;5409;42.620;23.316;2022-08-11T12:40:13;92335.63;;;31.49;42.97
10716;BME280;5409;42.620;23.316;2022-08-11T12:43:03;92338.44;;;31.80;41.68
10716;BME280;5409;42.620;23.316;2022-08-11T12:45:44;92343.50;;;31.03;42.59
10716;BME280;5409;42.620;23.316;2022-08-11T12:48:16;92349.28;;;30.36;47.89
10716;BME280;5409;42.620;23.316;2022-08-11T12:51:03;92332.41;;;29.76;47.93
10716;BME280;5409;42.620;23.316;2022-08-11T12:53:52;92331.91;;;29.27;50.18
10716;BME280;5409;42.620;23.316;2022-08-11T12:56:21;92340.63;;;28.66;53.31
10716;BME280;5409;42.620;23.316;2022-08-11T12:59:13;92345.47;;;28.30;57.08
10716;BME280;5409;42.620;23.316;2022-08-11T13:01:58;92347.75;;;27.30;58.70
10716;BME280;5409;42.620;23.316;2022-08-11T13:04:43;92347.53;;;26.94;62.10
10716;BME280;5409;42.620;23.316;2022-08-11T13:07:25;92347.81;;;26.45;64.64
10716;BME280;5409;42.620;23.316;2022-08-11T13:09:53;92352.88;;;25.76;66.04
10716;BME280;5409;42.620;23.316;2022-08-11T13:12:22;92350.28;;;25.34;68.16
10716;BME280;5409;42.620;23.316;2022-08-11T13:15:10;92354.00;;;25.05;71.82
10716;BME280;5409;42.620;23.316;2022-08-11T13:17:39;92348.53;;;24.99;71.87
10716;BME280;5409;42.620;23.316;2022-08-11T13:20:08;92351.94;;;24.74;71.49
10716;BME280;5409;42.620;23.316;2022-08-11T13:22:40;92354.03;;;24.49;72.18
10716;BME280;5409;42.620;23.316;2022-08-11T13:25:10;92354.63;;;24.61;72.50
10716;BME280;5409;42.620;23.316;2022-08-11T13:27:39;92346.19;;;24.48;73.36
10716;BME280;5409;42.620;23.316;2022-08-11T13:30:08;92354.25;;;24.70;73.64
10716;BME280;5409;42.620;23.316;2022-08-11T13:32:52;92355.31;;;24.67;74.24
10716;BME280;5409;42.620;23.316;2022-08-11T13:35:21;92343.69;;;24.63;75.75
10716;BME280;5409;42.620;23.316;2022-08-11T13:37:48;92354.03;;;24.68;74.71
10716;BME280;5409;42.620;23.316;2022-08-11T13:40:17;92343.47;;;24.79;74.96
10716;BME280;5409;42.620;23.316;2022-08-11T13:42:45;92339.03;;;24.89;74.04
10716;BME280;5409;42.620;23.316;2022-08-11T13:45:15;92338.94;;;24.95;74.85
10716;BME280;5409;42.620;23.316;2022-08-11T13:47:42;92335.03;;;25.03;71.93
10716;BME280;5409;42.620;23.316;2022-08-11T13:50:09;92337.66;;;24.77;72.65
10716;BME280;5409;42.620;23.316;2022-08-11T13:52:38;92332.03;;;24.64;72.19
10716;BME280;5409;42.620;23.316;2022-08-11T13:55:07;92331.91;;;24.75;74.42
10716;BME280;5409;42.620;23.316;2022-08-11T13:57:35;92334.22;;;24.90;73.72
10716;BME280;5409;42.620;23.316;2022-08-11T14:00:05;92325.09;;;24.89;72.82
10716;BME280;5409;42.620;23.316;2022-08-11T14:02:40;92325.22;;;24.97;75.14
10716;BME280;5409;42.620;23.316;2022-08-11T14:05:11;92317.22;;;25.06;73.60
10716;BME280;5409;42.620;23.316;2022-08-11T14:07:45;92326.88;;;25.24;71.96
10716;BME280;5409;42.620;23.316;2022-08-11T14:10:15;92325.28;;;25.28;73.59
10716;BME280;5409;42.620;23.316;2022-08-11T14:12:46;92321.06;;;25.22;69.67
10716;BME280;5409;42.620;23.316;2022-08-11T14:15:34;92325.81;;;25.27;73.17
10716;BME280;5409;42.620;23.316;2022-08-11T14:18:06;92315.50;;;25.03;69.48
10716;BME280;5409;42.620;23.316;2022-08-11T14:20:36;92318.56;;;25.00;71.48
10716;BME280;5409;42.620;23.316;2022-08-11T14:23:26;92316.53;;;25.19;71.44
10716;BME280;5409;42.620;23.316;2022-08-11T14:25:54;92318.50;;;25.24;68.61
10716;BME280;5409;42.620;23.316;2022-08-11T14:28:39;92318.50;;;25.24;67.46
10716;BME280;5409;42.620;23.316;2022-08-11T14:31:07;92309.75;;;25.14;69.86
10716;BME280;5409;42.620;23.316;2022-08-11T14:33:36;92308.81;;;24.75;68.11
10716;BME280;5409;42.620;23.316;2022-08-11T14:36:04;92315.91;;;24.57;70.12
10716;BME280;5409;42.620;23.316;2022-08-11T14:38:33;92309.88;;;24.53;70.19
10716;BME280;5409;42.620;23.316;2022-08-11T14:41:01;92313.19;;;24.70;68.72
10716;BME280;5409;42.620;23.316;2022-08-11T14:43:46;92305.88;;;24.67;67.45